This is the latest recevied weather packets stored in our database for station/object KCXW. If no packets are shown the sender has not sent any weather packets the latest 10 day(s).
| Time | Temp. | Humidity | Pressure | Rain* | Wind** | Luminosity | Snow |
|---|---|---|---|---|---|---|---|
| 1777746211 | 21.67° C | 40% | 1019 hPa | - | - | - | - |
| 1777745609 | 20.56° C | 40% | 1019 hPa | - | - | - | - |
| 1777745012 | 20.56° C | 40% | 1019 hPa | - | - | - | - |
| 1777744412 | 20.56° C | 43% | 1019.3 hPa | - | - | - | - |
| 1777743809 | 20.56° C | 46% | 1019.6 hPa | - | - | - | - |
| 1777743210 | 20.56° C | 46% | 1019.6 hPa | - | - | - | - |
| 1777742613 | 20.56° C | 46% | 1019.6 hPa | - | - | - | - |
| 1777742008 | 20.56° C | 46% | 1019.6 hPa | - | - | - | - |
| 1777741412 | 20.56° C | 46% | 1019.6 hPa | - | - | - | - |
| 1777740814 | 20° C | 45% | 1019.6 hPa | - | - | - | - |
| 1777740213 | 20° C | 45% | 1019.6 hPa | - | - | - | - |
| 1777739610 | 20° C | 45% | 1020 hPa | - | - | - | - |
| 1777739009 | 20° C | 45% | 1020 hPa | - | - | - | - |
| 1777738411 | 20° C | 49% | 1020 hPa | - | - | - | - |
| 1777737814 | 20° C | 49% | 1020 hPa | - | - | - | - |
| 1777737337 | 18.89° C | 52% | 1020 hPa | - | - | - | - |
| 1777736613 | 18.89° C | 52% | 1020 hPa | - | - | - | - |
| 1777736014 | 16.67° C | 67% | 1020 hPa | - | - | - | - |
| 1777735409 | 16.67° C | 67% | 1020 hPa | - | - | - | - |
| 1777734811 | 16.67° C | 67% | 1020 hPa | - | - | - | - |
| 1777734210 | 16.67° C | 67% | 1020 hPa | - | - | - | - |
| 1777733611 | 15.56° C | 72% | 1020.3 hPa | - | - | - | - |
| 1777733011 | 15° C | 82% | 1020.3 hPa | - | - | - | - |
| 1777732413 | 15° C | 82% | 1020.3 hPa | - | - | - | - |
| 1777731810 | 15° C | 82% | 1020.3 hPa | - | - | - | - |
* Rain since midnight (hover to see other rain measurements)
** Current wind speed in m/s (hover to see current wind gust speed)